sensor_id;sensor_type;location;lat;lon;timestamp;P1;durP1;ratioP1;P2;durP2;ratioP2
67185;SDS011;54116;53.518;49.398;2024-03-06T00:02:05;35.33;;;11.77;;
67185;SDS011;54116;53.518;49.398;2024-03-06T00:04:32;41.35;;;12.63;;
67185;SDS011;54116;53.518;49.398;2024-03-06T00:06:59;34.58;;;12.48;;
67185;SDS011;54116;53.518;49.398;2024-03-06T00:09:25;41.90;;;13.23;;
67185;SDS011;54116;53.518;49.398;2024-03-06T00:11:57;35.63;;;12.00;;
67185;SDS011;54116;53.518;49.398;2024-03-06T00:14:34;35.60;;;11.90;;
67185;SDS011;54116;53.518;49.398;2024-03-06T00:17:02;35.15;;;11.93;;
67185;SDS011;54116;53.518;49.398;2024-03-06T00:19:32;42.53;;;12.88;;
67185;SDS011;54116;53.518;49.398;2024-03-06T00:21:59;39.60;;;12.63;;
67185;SDS011;54116;53.518;49.398;2024-03-06T00:24:26;32.83;;;11.57;;
67185;SDS011;54116;53.518;49.398;2024-03-06T00:26:52;32.75;;;11.45;;
67185;SDS011;54116;53.518;49.398;2024-03-06T00:29:19;38.75;;;12.63;;
67185;SDS011;54116;53.518;49.398;2024-03-06T00:31:45;36.45;;;12.30;;
67185;SDS011;54116;53.518;49.398;2024-03-06T00:34:12;38.47;;;11.60;;
67185;SDS011;54116;53.518;49.398;2024-03-06T00:36:44;43.42;;;14.32;;
67185;SDS011;54116;53.518;49.398;2024-03-06T00:39:10;38.42;;;13.68;;
67185;SDS011;54116;53.518;49.398;2024-03-06T00:41:39;41.03;;;13.20;;
67185;SDS011;54116;53.518;49.398;2024-03-06T00:44:06;37.92;;;12.13;;
67185;SDS011;54116;53.518;49.398;2024-03-06T00:46:32;38.40;;;13.02;;
67185;SDS011;54116;53.518;49.398;2024-03-06T00:48:58;40.58;;;12.90;;
67185;SDS011;54116;53.518;49.398;2024-03-06T00:51:24;43.55;;;12.90;;
67185;SDS011;54116;53.518;49.398;2024-03-06T00:53:51;42.75;;;14.25;;
67185;SDS011;54116;53.518;49.398;2024-03-06T00:56:18;53.58;;;15.77;;
67185;SDS011;54116;53.518;49.398;2024-03-06T00:58:44;44.15;;;14.77;;
67185;SDS011;54116;53.518;49.398;2024-03-06T01:01:10;46.63;;;16.27;;
67185;SDS011;54116;53.518;49.398;2024-03-06T01:03:37;42.80;;;14.93;;
67185;SDS011;54116;53.518;49.398;2024-03-06T01:06:04;40.30;;;13.55;;
67185;SDS011;54116;53.518;49.398;2024-03-06T01:08:30;42.92;;;14.10;;
67185;SDS011;54116;53.518;49.398;2024-03-06T01:10:57;46.65;;;14.60;;
67185;SDS011;54116;53.518;49.398;2024-03-06T01:13:23;39.38;;;14.15;;
67185;SDS011;54116;53.518;49.398;2024-03-06T01:15:49;48.00;;;14.95;;
67185;SDS011;54116;53.518;49.398;2024-03-06T01:18:15;42.28;;;14.75;;
67185;SDS011;54116;53.518;49.398;2024-03-06T01:20:41;46.28;;;15.52;;
67185;SDS011;54116;53.518;49.398;2024-03-06T01:23:07;46.28;;;14.50;;
67185;SDS011;54116;53.518;49.398;2024-03-06T01:25:34;49.65;;;15.63;;
67185;SDS011;54116;53.518;49.398;2024-03-06T01:28:00;47.78;;;15.95;;
67185;SDS011;54116;53.518;49.398;2024-03-06T01:30:26;49.42;;;17.15;;
67185;SDS011;54116;53.518;49.398;2024-03-06T01:32:52;51.00;;;16.25;;
67185;SDS011;54116;53.518;49.398;2024-03-06T01:35:19;51.60;;;17.50;;
67185;SDS011;54116;53.518;49.398;2024-03-06T01:37:45;51.17;;;16.10;;
67185;SDS011;54116;53.518;49.398;2024-03-06T01:40:11;44.10;;;15.38;;
67185;SDS011;54116;53.518;49.398;2024-03-06T01:42:38;47.75;;;16.42;;
67185;SDS011;54116;53.518;49.398;2024-03-06T01:45:04;53.00;;;16.38;;
67185;SDS011;54116;53.518;49.398;2024-03-06T01:49:58;50.47;;;15.02;;
67185;SDS011;54116;53.518;49.398;2024-03-06T01:52:24;47.55;;;15.13;;
67185;SDS011;54116;53.518;49.398;2024-03-06T01:54:52;43.72;;;15.05;;
67185;SDS011;54116;53.518;49.398;2024-03-06T01:59:45;42.15;;;14.02;;
67185;SDS011;54116;53.518;49.398;2024-03-06T02:02:12;42.83;;;13.95;;
67185;SDS011;54116;53.518;49.398;2024-03-06T02:04:39;45.28;;;14.77;;
67185;SDS011;54116;53.518;49.398;2024-03-06T02:07:09;47.47;;;16.25;;
67185;SDS011;54116;53.518;49.398;2024-03-06T02:09:38;42.00;;;14.25;;
67185;SDS011;54116;53.518;49.398;2024-03-06T02:12:06;44.85;;;14.65;;
67185;SDS011;54116;53.518;49.398;2024-03-06T02:14:37;48.20;;;16.23;;
67185;SDS011;54116;53.518;49.398;2024-03-06T02:17:03;42.70;;;15.32;;
67185;SDS011;54116;53.518;49.398;2024-03-06T02:19:43;53.90;;;17.85;;
67185;SDS011;54116;53.518;49.398;2024-03-06T02:22:10;49.05;;;15.40;;
67185;SDS011;54116;53.518;49.398;2024-03-06T02:24:36;45.80;;;15.90;;
67185;SDS011;54116;53.518;49.398;2024-03-06T02:27:03;56.63;;;16.63;;
67185;SDS011;54116;53.518;49.398;2024-03-06T02:29:33;52.70;;;16.10;;
67185;SDS011;54116;53.518;49.398;2024-03-06T02:31:59;49.40;;;15.77;;
67185;SDS011;54116;53.518;49.398;2024-03-06T02:34:28;48.40;;;16.17;;
67185;SDS011;54116;53.518;49.398;2024-03-06T02:36:55;47.72;;;15.45;;
67185;SDS011;54116;53.518;49.398;2024-03-06T02:39:22;47.22;;;16.30;;
67185;SDS011;54116;53.518;49.398;2024-03-06T02:41:48;52.00;;;15.88;;
67185;SDS011;54116;53.518;49.398;2024-03-06T02:44:14;46.83;;;15.18;;
67185;SDS011;54116;53.518;49.398;2024-03-06T02:46:46;45.90;;;16.02;;
67185;SDS011;54116;53.518;49.398;2024-03-06T02:49:16;45.35;;;15.40;;
67185;SDS011;54116;53.518;49.398;2024-03-06T02:51:43;49.35;;;16.25;;
67185;SDS011;54116;53.518;49.398;2024-03-06T02:54:10;46.55;;;15.20;;
67185;SDS011;54116;53.518;49.398;2024-03-06T02:56:37;49.20;;;16.52;;
67185;SDS011;54116;53.518;49.398;2024-03-06T02:59:03;47.80;;;16.30;;
67185;SDS011;54116;53.518;49.398;2024-03-06T03:01:29;39.30;;;14.90;;
67185;SDS011;54116;53.518;49.398;2024-03-06T03:03:56;53.65;;;14.68;;
67185;SDS011;54116;53.518;49.398;2024-03-06T03:06:22;45.63;;;15.77;;
67185;SDS011;54116;53.518;49.398;2024-03-06T03:08:51;50.72;;;15.70;;
67185;SDS011;54116;53.518;49.398;2024-03-06T03:11:17;52.40;;;17.67;;
67185;SDS011;54116;53.518;49.398;2024-03-06T03:13:43;42.35;;;14.40;;
67185;SDS011;54116;53.518;49.398;2024-03-06T03:16:16;54.40;;;16.90;;
67185;SDS011;54116;53.518;49.398;2024-03-06T03:18:43;48.88;;;14.98;;
67185;SDS011;54116;53.518;49.398;2024-03-06T03:21:11;53.90;;;16.55;;
67185;SDS011;54116;53.518;49.398;2024-03-06T03:23:38;46.03;;;15.93;;
67185;SDS011;54116;53.518;49.398;2024-03-06T03:26:05;53.10;;;17.27;;
67185;SDS011;54116;53.518;49.398;2024-03-06T03:28:32;47.05;;;16.42;;
67185;SDS011;54116;53.518;49.398;2024-03-06T03:30:58;46.17;;;15.45;;
67185;SDS011;54116;53.518;49.398;2024-03-06T03:33:24;47.47;;;16.65;;
67185;SDS011;54116;53.518;49.398;2024-03-06T03:35:50;49.03;;;17.38;;
67185;SDS011;54116;53.518;49.398;2024-03-06T03:38:16;42.40;;;14.02;;
67185;SDS011;54116;53.518;49.398;2024-03-06T03:40:43;43.83;;;15.23;;
67185;SDS011;54116;53.518;49.398;2024-03-06T03:43:09;51.38;;;18.30;;
67185;SDS011;54116;53.518;49.398;2024-03-06T03:48:01;37.15;;;12.95;;
67185;SDS011;54116;53.518;49.398;2024-03-06T03:50:28;46.40;;;14.95;;
67185;SDS011;54116;53.518;49.398;2024-03-06T03:52:55;44.45;;;15.07;;
67185;SDS011;54116;53.518;49.398;2024-03-06T03:55:26;54.15;;;17.02;;
67185;SDS011;54116;53.518;49.398;2024-03-06T03:57:53;47.75;;;15.52;;
67185;SDS011;54116;53.518;49.398;2024-03-06T04:00:19;45.05;;;15.30;;
67185;SDS011;54116;53.518;49.398;2024-03-06T04:02:45;49.00;;;15.43;;
67185;SDS011;54116;53.518;49.398;2024-03-06T04:05:12;40.70;;;14.02;;
67185;SDS011;54116;53.518;49.398;2024-03-06T04:07:38;44.35;;;14.80;;
67185;SDS011;54116;53.518;49.398;2024-03-06T04:10:04;46.72;;;16.33;;
67185;SDS011;54116;53.518;49.398;2024-03-06T04:12:31;48.45;;;16.42;;
67185;SDS011;54116;53.518;49.398;2024-03-06T04:14:57;42.00;;;14.80;;
67185;SDS011;54116;53.518;49.398;2024-03-06T04:17:23;42.55;;;16.00;;
67185;SDS011;54116;53.518;49.398;2024-03-06T04:19:50;41.35;;;15.50;;
67185;SDS011;54116;53.518;49.398;2024-03-06T04:22:19;47.78;;;16.67;;
67185;SDS011;54116;53.518;49.398;2024-03-06T04:24:45;38.75;;;12.82;;
67185;SDS011;54116;53.518;49.398;2024-03-06T04:27:11;39.22;;;13.95;;
67185;SDS011;54116;53.518;49.398;2024-03-06T04:29:37;47.38;;;15.40;;
67185;SDS011;54116;53.518;49.398;2024-03-06T04:32:03;40.50;;;14.80;;
67185;SDS011;54116;53.518;49.398;2024-03-06T04:34:29;42.78;;;14.55;;
67185;SDS011;54116;53.518;49.398;2024-03-06T04:36:55;39.30;;;12.65;;
67185;SDS011;54116;53.518;49.398;2024-03-06T04:39:22;38.90;;;13.05;;
67185;SDS011;54116;53.518;49.398;2024-03-06T04:41:48;42.65;;;14.52;;
67185;SDS011;54116;53.518;49.398;2024-03-06T04:44:15;44.38;;;15.20;;
67185;SDS011;54116;53.518;49.398;2024-03-06T04:46:41;55.55;;;21.05;;
67185;SDS011;54116;53.518;49.398;2024-03-06T04:49:07;47.70;;;16.13;;
67185;SDS011;54116;53.518;49.398;2024-03-06T04:54:02;42.60;;;15.32;;
67185;SDS011;54116;53.518;49.398;2024-03-06T04:56:28;38.40;;;13.82;;
67185;SDS011;54116;53.518;49.398;2024-03-06T04:58:54;44.17;;;14.27;;
67185;SDS011;54116;53.518;49.398;2024-03-06T05:01:21;43.72;;;15.20;;
67185;SDS011;54116;53.518;49.398;2024-03-06T05:03:47;39.80;;;14.98;;
67185;SDS011;54116;53.518;49.398;2024-03-06T05:06:13;40.88;;;14.40;;
67185;SDS011;54116;53.518;49.398;2024-03-06T05:08:39;50.38;;;15.85;;
67185;SDS011;54116;53.518;49.398;2024-03-06T05:11:05;38.90;;;13.45;;
67185;SDS011;54116;53.518;49.398;2024-03-06T05:13:31;44.53;;;15.05;;
67185;SDS011;54116;53.518;49.398;2024-03-06T05:15:57;43.72;;;15.30;;
67185;SDS011;54116;53.518;49.398;2024-03-06T05:18:23;43.22;;;15.20;;
67185;SDS011;54116;53.518;49.398;2024-03-06T05:20:49;42.03;;;14.65;;
67185;SDS011;54116;53.518;49.398;2024-03-06T05:23:16;45.38;;;15.52;;
67185;SDS011;54116;53.518;49.398;2024-03-06T05:25:43;41.58;;;14.57;;
67185;SDS011;54116;53.518;49.398;2024-03-06T05:28:09;40.63;;;14.65;;
67185;SDS011;54116;53.518;49.398;2024-03-06T05:30:35;38.95;;;14.05;;
67185;SDS011;54116;53.518;49.398;2024-03-06T05:33:02;40.28;;;14.07;;
67185;SDS011;54116;53.518;49.398;2024-03-06T05:35:30;38.90;;;14.00;;
67185;SDS011;54116;53.518;49.398;2024-03-06T05:37:56;37.45;;;14.30;;
67185;SDS011;54116;53.518;49.398;2024-03-06T05:40:22;40.40;;;14.10;;
67185;SDS011;54116;53.518;49.398;2024-03-06T05:42:49;38.90;;;14.75;;
67185;SDS011;54116;53.518;49.398;2024-03-06T05:45:15;47.20;;;15.95;;
67185;SDS011;54116;53.518;49.398;2024-03-06T05:47:41;41.28;;;15.20;;
67185;SDS011;54116;53.518;49.398;2024-03-06T05:50:07;38.42;;;14.68;;
67185;SDS011;54116;53.518;49.398;2024-03-06T05:52:36;43.63;;;15.98;;
67185;SDS011;54116;53.518;49.398;2024-03-06T05:55:03;38.08;;;14.35;;
67185;SDS011;54116;53.518;49.398;2024-03-06T05:57:31;40.33;;;14.38;;
67185;SDS011;54116;53.518;49.398;2024-03-06T05:59:57;37.47;;;14.60;;
67185;SDS011;54116;53.518;49.398;2024-03-06T06:02:24;40.65;;;15.10;;
67185;SDS011;54116;53.518;49.398;2024-03-06T06:04:50;38.67;;;14.73;;
67185;SDS011;54116;53.518;49.398;2024-03-06T06:07:17;36.55;;;13.02;;
67185;SDS011;54116;53.518;49.398;2024-03-06T06:09:43;33.83;;;13.52;;
67185;SDS011;54116;53.518;49.398;2024-03-06T06:12:09;35.95;;;13.45;;
67185;SDS011;54116;53.518;49.398;2024-03-06T06:14:35;33.97;;;13.07;;
67185;SDS011;54116;53.518;49.398;2024-03-06T06:17:02;33.97;;;13.43;;
67185;SDS011;54116;53.518;49.398;2024-03-06T06:19:28;30.95;;;12.00;;
67185;SDS011;54116;53.518;49.398;2024-03-06T06:21:54;33.75;;;14.15;;
67185;SDS011;54116;53.518;49.398;2024-03-06T06:24:20;36.35;;;12.80;;
67185;SDS011;54116;53.518;49.398;2024-03-06T06:26:46;33.20;;;14.00;;
67185;SDS011;54116;53.518;49.398;2024-03-06T06:29:13;32.20;;;12.57;;
67185;SDS011;54116;53.518;49.398;2024-03-06T06:31:39;31.13;;;12.77;;
67185;SDS011;54116;53.518;49.398;2024-03-06T06:34:05;33.45;;;13.25;;
67185;SDS011;54116;53.518;49.398;2024-03-06T06:36:32;36.75;;;14.18;;
67185;SDS011;54116;53.518;49.398;2024-03-06T06:38:58;34.05;;;11.85;;
67185;SDS011;54116;53.518;49.398;2024-03-06T06:41:24;30.75;;;12.32;;
67185;SDS011;54116;53.518;49.398;2024-03-06T06:43:51;27.40;;;10.50;;
67185;SDS011;54116;53.518;49.398;2024-03-06T06:46:18;33.08;;;11.88;;
67185;SDS011;54116;53.518;49.398;2024-03-06T06:48:44;29.48;;;10.95;;
67185;SDS011;54116;53.518;49.398;2024-03-06T06:51:10;31.80;;;11.95;;
67185;SDS011;54116;53.518;49.398;2024-03-06T06:53:39;26.73;;;11.23;;
67185;SDS011;54116;53.518;49.398;2024-03-06T06:56:07;29.95;;;12.02;;
67185;SDS011;54116;53.518;49.398;2024-03-06T06:58:33;26.65;;;10.73;;
67185;SDS011;54116;53.518;49.398;2024-03-06T07:00:59;29.13;;;11.80;;
67185;SDS011;54116;53.518;49.398;2024-03-06T07:03:25;31.27;;;11.52;;
67185;SDS011;54116;53.518;49.398;2024-03-06T07:05:55;27.55;;;11.07;;
67185;SDS011;54116;53.518;49.398;2024-03-06T07:08:22;24.77;;;10.57;;
67185;SDS011;54116;53.518;49.398;2024-03-06T07:10:49;25.65;;;9.70;;
67185;SDS011;54116;53.518;49.398;2024-03-06T07:13:16;29.35;;;10.68;;
67185;SDS011;54116;53.518;49.398;2024-03-06T07:15:43;28.33;;;10.35;;
67185;SDS011;54116;53.518;49.398;2024-03-06T07:18:13;24.17;;;9.45;;
67185;SDS011;54116;53.518;49.398;2024-03-06T07:21:00;22.20;;;9.43;;
67185;SDS011;54116;53.518;49.398;2024-03-06T07:23:26;23.40;;;9.00;;
67185;SDS011;54116;53.518;49.398;2024-03-06T07:25:52;23.38;;;9.40;;
67185;SDS011;54116;53.518;49.398;2024-03-06T07:28:18;23.85;;;8.82;;
67185;SDS011;54116;53.518;49.398;2024-03-06T07:30:55;20.23;;;8.13;;
67185;SDS011;54116;53.518;49.398;2024-03-06T07:33:52;17.95;;;7.78;;
67185;SDS011;54116;53.518;49.398;2024-03-06T07:36:18;18.77;;;6.97;;
67185;SDS011;54116;53.518;49.398;2024-03-06T07:38:46;17.20;;;6.95;;
67185;SDS011;54116;53.518;49.398;2024-03-06T07:41:12;17.63;;;6.93;;
67185;SDS011;54116;53.518;49.398;2024-03-06T07:43:38;16.40;;;6.60;;
67185;SDS011;54116;53.518;49.398;2024-03-06T07:46:04;15.90;;;6.07;;
67185;SDS011;54116;53.518;49.398;2024-03-06T07:48:36;14.38;;;6.25;;
67185;SDS011;54116;53.518;49.398;2024-03-06T07:51:03;15.80;;;6.15;;
67185;SDS011;54116;53.518;49.398;2024-03-06T07:53:48;16.13;;;6.32;;
67185;SDS011;54116;53.518;49.398;2024-03-06T07:56:16;16.95;;;6.57;;
67185;SDS011;54116;53.518;49.398;2024-03-06T07:58:42;15.55;;;6.20;;
67185;SDS011;54116;53.518;49.398;2024-03-06T08:01:09;14.27;;;5.43;;
67185;SDS011;54116;53.518;49.398;2024-03-06T08:03:38;15.25;;;6.20;;
67185;SDS011;54116;53.518;49.398;2024-03-06T08:06:05;15.05;;;6.40;;
67185;SDS011;54116;53.518;49.398;2024-03-06T08:08:31;20.67;;;7.35;;
67185;SDS011;54116;53.518;49.398;2024-03-06T08:11:17;17.33;;;6.80;;
67185;SDS011;54116;53.518;49.398;2024-03-06T08:13:43;13.75;;;5.90;;
67185;SDS011;54116;53.518;49.398;2024-03-06T08:16:09;9.10;;;3.67;;
67185;SDS011;54116;53.518;49.398;2024-03-06T08:18:36;8.77;;;3.60;;
67185;SDS011;54116;53.518;49.398;2024-03-06T08:21:02;8.02;;;2.92;;
67185;SDS011;54116;53.518;49.398;2024-03-06T08:23:30;7.28;;;3.03;;
67185;SDS011;54116;53.518;49.398;2024-03-06T08:25:57;7.68;;;3.28;;
67185;SDS011;54116;53.518;49.398;2024-03-06T08:28:24;7.40;;;2.92;;
67185;SDS011;54116;53.518;49.398;2024-03-06T08:30:51;7.35;;;2.95;;
67185;SDS011;54116;53.518;49.398;2024-03-06T08:33:18;7.47;;;3.03;;
67185;SDS011;54116;53.518;49.398;2024-03-06T08:35:46;7.82;;;3.00;;
67185;SDS011;54116;53.518;49.398;2024-03-06T08:38:12;7.70;;;2.92;;
67185;SDS011;54116;53.518;49.398;2024-03-06T08:40:38;7.40;;;3.53;;
67185;SDS011;54116;53.518;49.398;2024-03-06T08:43:06;8.02;;;3.35;;
67185;SDS011;54116;53.518;49.398;2024-03-06T08:45:34;9.23;;;3.42;;
67185;SDS011;54116;53.518;49.398;2024-03-06T08:48:00;9.57;;;3.58;;
67185;SDS011;54116;53.518;49.398;2024-03-06T08:50:26;11.68;;;4.43;;
67185;SDS011;54116;53.518;49.398;2024-03-06T08:52:52;7.70;;;2.90;;
67185;SDS011;54116;53.518;49.398;2024-03-06T08:55:19;7.55;;;2.78;;
67185;SDS011;54116;53.518;49.398;2024-03-06T08:57:45;6.22;;;2.20;;
67185;SDS011;54116;53.518;49.398;2024-03-06T09:00:11;6.22;;;2.53;;
67185;SDS011;54116;53.518;49.398;2024-03-06T09:02:40;5.57;;;2.28;;
67185;SDS011;54116;53.518;49.398;2024-03-06T09:05:07;6.57;;;2.72;;
67185;SDS011;54116;53.518;49.398;2024-03-06T09:07:44;6.53;;;2.45;;
67185;SDS011;54116;53.518;49.398;2024-03-06T09:10:11;7.18;;;2.90;;
67185;SDS011;54116;53.518;49.398;2024-03-06T09:12:37;6.93;;;2.60;;
67185;SDS011;54116;53.518;49.398;2024-03-06T09:15:03;8.88;;;2.88;;
67185;SDS011;54116;53.518;49.398;2024-03-06T09:17:30;6.03;;;2.67;;
67185;SDS011;54116;53.518;49.398;2024-03-06T09:19:56;6.60;;;2.83;;
67185;SDS011;54116;53.518;49.398;2024-03-06T09:22:22;7.47;;;2.97;;
67185;SDS011;54116;53.518;49.398;2024-03-06T09:24:48;7.22;;;2.70;;
67185;SDS011;54116;53.518;49.398;2024-03-06T09:27:15;7.18;;;2.53;;
67185;SDS011;54116;53.518;49.398;2024-03-06T09:29:42;7.80;;;2.70;;
67185;SDS011;54116;53.518;49.398;2024-03-06T09:32:10;5.57;;;1.90;;
67185;SDS011;54116;53.518;49.398;2024-03-06T09:34:38;5.05;;;1.70;;
67185;SDS011;54116;53.518;49.398;2024-03-06T09:37:04;5.45;;;1.70;;
67185;SDS011;54116;53.518;49.398;2024-03-06T09:39:30;5.05;;;1.52;;
67185;SDS011;54116;53.518;49.398;2024-03-06T09:41:56;5.88;;;1.83;;
67185;SDS011;54116;53.518;49.398;2024-03-06T09:44:25;4.68;;;1.88;;
67185;SDS011;54116;53.518;49.398;2024-03-06T09:47:12;4.30;;;1.67;;
67185;SDS011;54116;53.518;49.398;2024-03-06T09:49:44;4.80;;;1.63;;
67185;SDS011;54116;53.518;49.398;2024-03-06T09:52:10;3.88;;;1.60;;
67185;SDS011;54116;53.518;49.398;2024-03-06T09:57:04;6.10;;;1.88;;
67185;SDS011;54116;53.518;49.398;2024-03-06T09:59:31;5.68;;;1.83;;
67185;SDS011;54116;53.518;49.398;2024-03-06T10:01:57;5.93;;;2.22;;
67185;SDS011;54116;53.518;49.398;2024-03-06T10:04:24;5.00;;;1.73;;
67185;SDS011;54116;53.518;49.398;2024-03-06T10:06:52;6.03;;;2.15;;
67185;SDS011;54116;53.518;49.398;2024-03-06T10:09:23;4.60;;;1.48;;
67185;SDS011;54116;53.518;49.398;2024-03-06T10:11:50;4.18;;;1.60;;
67185;SDS011;54116;53.518;49.398;2024-03-06T10:14:19;4.35;;;1.52;;
67185;SDS011;54116;53.518;49.398;2024-03-06T10:19:24;7.22;;;2.03;;
67185;SDS011;54116;53.518;49.398;2024-03-06T10:21:55;6.40;;;2.05;;
67185;SDS011;54116;53.518;49.398;2024-03-06T10:24:23;5.57;;;2.22;;
67185;SDS011;54116;53.518;49.398;2024-03-06T10:26:57;4.53;;;1.83;;
67185;SDS011;54116;53.518;49.398;2024-03-06T10:29:24;5.00;;;2.03;;
67185;SDS011;54116;53.518;49.398;2024-03-06T10:31:53;5.82;;;2.20;;
67185;SDS011;54116;53.518;49.398;2024-03-06T10:34:21;4.93;;;1.98;;
67185;SDS011;54116;53.518;49.398;2024-03-06T10:36:49;5.30;;;1.85;;
67185;SDS011;54116;53.518;49.398;2024-03-06T10:39:19;4.10;;;2.08;;
67185;SDS011;54116;53.518;49.398;2024-03-06T10:41:46;6.15;;;2.67;;
67185;SDS011;54116;53.518;49.398;2024-03-06T10:44:16;5.60;;;2.33;;
67185;SDS011;54116;53.518;49.398;2024-03-06T10:46:47;6.53;;;2.50;;
67185;SDS011;54116;53.518;49.398;2024-03-06T10:49:23;5.85;;;2.70;;
67185;SDS011;54116;53.518;49.398;2024-03-06T10:51:51;6.32;;;2.20;;
67185;SDS011;54116;53.518;49.398;2024-03-06T10:54:19;5.95;;;2.42;;
67185;SDS011;54116;53.518;49.398;2024-03-06T10:56:48;7.15;;;2.25;;
67185;SDS011;54116;53.518;49.398;2024-03-06T10:59:14;5.00;;;1.88;;
67185;SDS011;54116;53.518;49.398;2024-03-06T11:01:43;5.15;;;2.00;;
67185;SDS011;54116;53.518;49.398;2024-03-06T11:04:12;6.15;;;2.42;;
67185;SDS011;54116;53.518;49.398;2024-03-06T11:07:00;5.80;;;2.13;;
67185;SDS011;54116;53.518;49.398;2024-03-06T11:09:34;6.40;;;2.03;;
67185;SDS011;54116;53.518;49.398;2024-03-06T11:12:02;5.30;;;2.15;;
67185;SDS011;54116;53.518;49.398;2024-03-06T11:14:30;5.78;;;2.10;;
67185;SDS011;54116;53.518;49.398;2024-03-06T11:17:09;6.03;;;2.08;;
67185;SDS011;54116;53.518;49.398;2024-03-06T11:28:22;4.28;;;1.73;;
67185;SDS011;54116;53.518;49.398;2024-03-06T11:31:02;6.90;;;2.17;;
67185;SDS011;54116;53.518;49.398;2024-03-06T11:33:38;7.22;;;2.08;;
67185;SDS011;54116;53.518;49.398;2024-03-06T11:36:24;5.82;;;2.22;;
67185;SDS011;54116;53.518;49.398;2024-03-06T11:38:57;6.07;;;2.38;;
67185;SDS011;54116;53.518;49.398;2024-03-06T11:41:26;8.88;;;2.45;;
67185;SDS011;54116;53.518;49.398;2024-03-06T11:43:53;5.13;;;2.13;;
67185;SDS011;54116;53.518;49.398;2024-03-06T11:47:07;5.30;;;1.80;;
67185;SDS011;54116;53.518;49.398;2024-03-06T11:51:55;5.93;;;2.15;;
67185;SDS011;54116;53.518;49.398;2024-03-06T11:54:23;4.10;;;1.73;;
67185;SDS011;54116;53.518;49.398;2024-03-06T11:56:51;5.40;;;2.08;;
67185;SDS011;54116;53.518;49.398;2024-03-06T11:59:25;5.80;;;2.17;;
67185;SDS011;54116;53.518;49.398;2024-03-06T12:01:55;6.93;;;2.45;;
67185;SDS011;54116;53.518;49.398;2024-03-06T12:04:23;4.32;;;1.63;;
67185;SDS011;54116;53.518;49.398;2024-03-06T12:06:50;3.20;;;1.15;;
67185;SDS011;54116;53.518;49.398;2024-03-06T12:09:16;4.88;;;1.48;;
67185;SDS011;54116;53.518;49.398;2024-03-06T12:11:43;5.32;;;2.25;;
67185;SDS011;54116;53.518;49.398;2024-03-06T12:14:18;5.32;;;1.83;;
67185;SDS011;54116;53.518;49.398;2024-03-06T12:16:55;6.22;;;2.03;;
67185;SDS011;54116;53.518;49.398;2024-03-06T12:19:27;6.50;;;2.03;;
67185;SDS011;54116;53.518;49.398;2024-03-06T12:21:55;6.32;;;1.98;;
67185;SDS011;54116;53.518;49.398;2024-03-06T12:24:21;4.50;;;2.10;;
67185;SDS011;54116;53.518;49.398;2024-03-06T12:26:57;5.70;;;2.00;;
67185;SDS011;54116;53.518;49.398;2024-03-06T12:29:29;5.05;;;1.80;;
67185;SDS011;54116;53.518;49.398;2024-03-06T12:31:57;5.45;;;1.83;;
67185;SDS011;54116;53.518;49.398;2024-03-06T12:34:30;6.20;;;2.40;;
67185;SDS011;54116;53.518;49.398;2024-03-06T12:36:56;5.03;;;2.00;;
67185;SDS011;54116;53.518;49.398;2024-03-06T12:39:34;5.18;;;2.03;;
67185;SDS011;54116;53.518;49.398;2024-03-06T12:42:01;7.10;;;1.63;;
67185;SDS011;54116;53.518;49.398;2024-03-06T12:44:27;5.13;;;2.00;;
67185;SDS011;54116;53.518;49.398;2024-03-06T12:46:53;4.93;;;1.90;;
67185;SDS011;54116;53.518;49.398;2024-03-06T12:49:19;5.65;;;1.88;;
67185;SDS011;54116;53.518;49.398;2024-03-06T12:51:45;7.80;;;1.95;;
67185;SDS011;54116;53.518;49.398;2024-03-06T12:54:12;5.45;;;1.83;;
67185;SDS011;54116;53.518;49.398;2024-03-06T12:56:38;5.15;;;1.63;;
67185;SDS011;54116;53.518;49.398;2024-03-06T12:59:06;6.20;;;1.98;;
67185;SDS011;54116;53.518;49.398;2024-03-06T13:01:32;5.00;;;2.35;;
67185;SDS011;54116;53.518;49.398;2024-03-06T13:03:58;7.38;;;2.35;;
67185;SDS011;54116;53.518;49.398;2024-03-06T13:06:25;6.53;;;2.10;;
67185;SDS011;54116;53.518;49.398;2024-03-06T13:08:53;6.93;;;1.90;;
67185;SDS011;54116;53.518;49.398;2024-03-06T13:11:19;5.15;;;1.90;;
67185;SDS011;54116;53.518;49.398;2024-03-06T13:13:45;6.20;;;1.80;;
67185;SDS011;54116;53.518;49.398;2024-03-06T13:16:12;5.60;;;2.05;;
67185;SDS011;54116;53.518;49.398;2024-03-06T13:18:39;8.18;;;2.63;;
67185;SDS011;54116;53.518;49.398;2024-03-06T13:21:05;6.32;;;2.08;;
67185;SDS011;54116;53.518;49.398;2024-03-06T13:23:31;5.85;;;2.33;;
67185;SDS011;54116;53.518;49.398;2024-03-06T13:25:57;5.95;;;2.33;;
67185;SDS011;54116;53.518;49.398;2024-03-06T13:28:24;7.38;;;2.05;;
67185;SDS011;54116;53.518;49.398;2024-03-06T13:30:50;9.02;;;2.28;;
67185;SDS011;54116;53.518;49.398;2024-03-06T13:33:16;5.78;;;1.92;;
67185;SDS011;54116;53.518;49.398;2024-03-06T13:35:42;7.75;;;2.20;;
67185;SDS011;54116;53.518;49.398;2024-03-06T13:38:08;7.07;;;2.03;;
67185;SDS011;54116;53.518;49.398;2024-03-06T13:40:34;7.95;;;2.80;;
67185;SDS011;54116;53.518;49.398;2024-03-06T13:43:00;11.02;;;3.90;;
67185;SDS011;54116;53.518;49.398;2024-03-06T13:47:54;7.30;;;2.40;;
67185;SDS011;54116;53.518;49.398;2024-03-06T13:50:20;6.15;;;2.22;;
67185;SDS011;54116;53.518;49.398;2024-03-06T13:52:50;5.05;;;2.00;;
67185;SDS011;54116;53.518;49.398;2024-03-06T13:55:16;8.13;;;2.10;;
67185;SDS011;54116;53.518;49.398;2024-03-06T13:57:42;7.03;;;2.20;;
67185;SDS011;54116;53.518;49.398;2024-03-06T14:00:09;4.55;;;1.60;;
67185;SDS011;54116;53.518;49.398;2024-03-06T14:02:43;7.43;;;2.50;;
67185;SDS011;54116;53.518;49.398;2024-03-06T14:05:11;7.53;;;2.38;;
67185;SDS011;54116;53.518;49.398;2024-03-06T14:07:38;7.10;;;2.33;;
67185;SDS011;54116;53.518;49.398;2024-03-06T14:10:07;7.40;;;2.35;;
67185;SDS011;54116;53.518;49.398;2024-03-06T14:12:36;12.88;;;3.10;;
67185;SDS011;54116;53.518;49.398;2024-03-06T14:15:03;9.73;;;2.45;;
67185;SDS011;54116;53.518;49.398;2024-03-06T14:17:38;8.73;;;2.35;;
67185;SDS011;54116;53.518;49.398;2024-03-06T14:20:04;6.25;;;2.00;;
67185;SDS011;54116;53.518;49.398;2024-03-06T14:22:31;8.02;;;2.28;;
67185;SDS011;54116;53.518;49.398;2024-03-06T14:24:57;5.10;;;1.95;;
67185;SDS011;54116;53.518;49.398;2024-03-06T14:27:23;9.65;;;2.15;;
67185;SDS011;54116;53.518;49.398;2024-03-06T14:29:50;8.23;;;2.40;;
67185;SDS011;54116;53.518;49.398;2024-03-06T14:32:19;5.75;;;2.13;;
67185;SDS011;54116;53.518;49.398;2024-03-06T14:34:45;10.35;;;2.47;;
67185;SDS011;54116;53.518;49.398;2024-03-06T14:37:12;6.90;;;2.75;;
67185;SDS011;54116;53.518;49.398;2024-03-06T14:39:38;7.43;;;2.47;;
67185;SDS011;54116;53.518;49.398;2024-03-06T14:42:05;8.25;;;2.30;;
67185;SDS011;54116;53.518;49.398;2024-03-06T14:44:32;10.73;;;2.70;;
67185;SDS011;54116;53.518;49.398;2024-03-06T14:46:58;11.73;;;3.05;;
67185;SDS011;54116;53.518;49.398;2024-03-06T14:49:24;10.50;;;2.60;;
67185;SDS011;54116;53.518;49.398;2024-03-06T14:51:51;7.68;;;2.22;;
67185;SDS011;54116;53.518;49.398;2024-03-06T14:54:19;8.25;;;2.72;;